MSC Clorinda — 3FDW7 — position and weather

sailwx.info

Track history (hours):
 
Tides and Currents Weather Stations Pressure Air Temp Water Temp Dewpoint Dewpoint Depression Visibility Wind Speed Wind Dir Waves Ship Positions

MSC Clorinda

Last reported at 2015-Jul-05 17:34 UTC. Time now 2015-Jul-05 17:34 UTC.
Position N 01°13' E 103°55'.

Length 366 m; draft 14.4 m.

Type: Ship (hazmat cat A). MMSI: 373233000.

Date/timePositionNaut miles runAvg speedWind from/ knotsBaromVisibWave heightAir tempDewpointWater temp
2015-Jul-05 17:34N 01°13' E 103°55'9 8.9
2015-Jul-05 16:33N 01°15' E 103°47'2 1.8
2015-Jul-05 15:32N 01°16' E 103°46'0 0.0
2015-Jul-05 14:32N 01°16' E 103°46'0 0.0
2015-Jul-05 13:29N 01°16' E 103°46'0 0.1
2015-Jul-05 12:23N 01°16' E 103°46'0 0.0
2015-Jul-05 11:29N 01°16' E 103°46'0 0.0
2015-Jul-05 09:32N 01°16' E 103°46'0 0.0
2015-Jul-05 08:32N 01°16' E 103°46'0 0.0
2015-Jul-05 07:32N 01°16' E 103°46'0 0.0
2015-Jul-05 06:32N 01°16' E 103°46'0 0.0
2015-Jul-05 05:29N 01°16' E 103°46'0 0.1
2015-Jul-05 04:23N 01°16' E 103°46'0 0.1
2015-Jul-05 03:29N 01°16' E 103°46'0 0.0
2015-Jul-05 02:32N 01°16' E 103°46'0 0.0
2015-Jul-05 01:26N 01°16' E 103°46'0 0.1
2015-Jul-05 00:29N 01°16' E 103°46'0 0.1
2015-Jul-04 23:29N 01°16' E 103°46'0 0.0
2015-Jul-04 22:05N 01°16' E 103°46'0 0.0
2015-Jul-04 21:32N 01°16' E 103°46'0 0.0
2015-Jul-04 20:32N 01°16' E 103°46'0 0.0
2015-Jul-04 19:29N 01°16' E 103°46'0 0.0
2015-Jul-04 18:29N 01°16' E 103°46'0 0.0
2015-Jul-04 17:29N 01°16' E 103°46'0 0.0
2015-Jul-04 16:29N 01°16' E 103°46'0 0.0
2015-Jul-04 15:32N 01°16' E 103°46'0 0.0
2015-Jul-04 14:29N 01°16' E 103°46'0 0.0
2015-Jul-04 13:08N 01°16' E 103°46'0 0.0
2015-Jul-04 12:32N 01°16' E 103°46'0 0.1
2015-Jul-04 11:29N 01°16' E 103°46'0 0.0
2015-Jul-04 10:29N 01°16' E 103°46'0 0.1
2015-Jul-04 09:29N 01°16' E 103°46'0 0.0
2015-Jul-04 08:29N 01°16' E 103°46'0 0.1
2015-Jul-04 07:32N 01°16' E 103°46'0 0.3
2015-Jul-04 06:29N 01°16' E 103°45'3 2.5
2015-Jul-04 05:25N 01°14' E 103°47'0 0.1
2015-Jul-04 04:31N 01°14' E 103°47'0 0.1
2015-Jul-04 03:33N 01°14' E 103°47'0 0.0
2015-Jul-04 02:34N 01°14' E 103°47'1 0.7
2015-Jul-04 01:33N 01°15' E 103°47'1110.6
2015-Jul-04 00:33N 01°12' E 103°36'1 0.8
2015-Jul-03 23:33N 01°12' E 103°36'  
Track history (hours):
 
Tides and Currents Weather Stations Pressure Air Temp Water Temp Dewpoint Dewpoint Depression Visibility Wind Speed Wind Dir Waves Ship Positions

MSC Clorinda

Last reported at 2015-Jul-05 17:34 UTC. Time now 2015-Jul-05 17:34 UTC.
Position N 01°13' E 103°55'.

Length 366 m; draft 14.4 m.

Type: Ship (hazmat cat A). MMSI: 373233000.

Date/timePositionNaut miles runAvg speedWind from/ knotsBaromVisibWave heightAir tempDewpointWater temp
2015-Jul-05 17:34N 01°13' E 103°55'9 8.9
2015-Jul-05 16:33N 01°15' E 103°47'2 1.8
2015-Jul-05 15:32N 01°16' E 103°46'0 0.0
2015-Jul-05 14:32N 01°16' E 103°46'0 0.0
2015-Jul-05 13:29N 01°16' E 103°46'0 0.1
2015-Jul-05 12:23N 01°16' E 103°46'0 0.0
2015-Jul-05 11:29N 01°16' E 103°46'0 0.0
2015-Jul-05 09:32N 01°16' E 103°46'0 0.0
2015-Jul-05 08:32N 01°16' E 103°46'0 0.0
2015-Jul-05 07:32N 01°16' E 103°46'0 0.0
2015-Jul-05 06:32N 01°16' E 103°46'0 0.0
2015-Jul-05 05:29N 01°16' E 103°46'0 0.1
2015-Jul-05 04:23N 01°16' E 103°46'0 0.1
2015-Jul-05 03:29N 01°16' E 103°46'0 0.0
2015-Jul-05 02:32N 01°16' E 103°46'0 0.0
2015-Jul-05 01:26N 01°16' E 103°46'0 0.1
2015-Jul-05 00:29N 01°16' E 103°46'0 0.1
2015-Jul-04 23:29N 01°16' E 103°46'0 0.0
2015-Jul-04 22:05N 01°16' E 103°46'0 0.0
2015-Jul-04 21:32N 01°16' E 103°46'0 0.0
2015-Jul-04 20:32N 01°16' E 103°46'0 0.0
2015-Jul-04 19:29N 01°16' E 103°46'0 0.0
2015-Jul-04 18:29N 01°16' E 103°46'0 0.0
2015-Jul-04 17:29N 01°16' E 103°46'0 0.0
2015-Jul-04 16:29N 01°16' E 103°46'0 0.0
2015-Jul-04 15:32N 01°16' E 103°46'0 0.0
2015-Jul-04 14:29N 01°16' E 103°46'0 0.0
2015-Jul-04 13:08N 01°16' E 103°46'0 0.0
2015-Jul-04 12:32N 01°16' E 103°46'0 0.1
2015-Jul-04 11:29N 01°16' E 103°46'0 0.0
2015-Jul-04 10:29N 01°16' E 103°46'0 0.1
2015-Jul-04 09:29N 01°16' E 103°46'0 0.0
2015-Jul-04 08:29N 01°16' E 103°46'0 0.1
2015-Jul-04 07:32N 01°16' E 103°46'0 0.3
2015-Jul-04 06:29N 01°16' E 103°45'3 2.5
2015-Jul-04 05:25N 01°14' E 103°47'0 0.1
2015-Jul-04 04:31N 01°14' E 103°47'0 0.1
2015-Jul-04 03:33N 01°14' E 103°47'0 0.0
2015-Jul-04 02:34N 01°14' E 103°47'1 0.7
2015-Jul-04 01:33N 01°15' E 103°47'1110.6
2015-Jul-04 00:33N 01°12' E 103°36'1 0.8
2015-Jul-03 23:33N 01°12' E 103°36'  

Dump ship's entire track history